Time;durP1;ratioP1;P1;durP2;ratioP2;P2;SDS_P1;SDS_P2;PMS_P1;PMS_P2;Temp;Humidity;BMP_temperature;BMP_pressure;BME280_temperature;BME280_humidity;BME280_pressure;Samples;Min_cycle;Max_cycle;Signal;HPM_P1;HPM_P2
2022/03/07 00:00:16;;;;;;;8.55;5.53;;;;;;;1.19;75.16;102666.59;5296283;28;20492;-70
2022/03/07 00:02:48;;;;;;;10.80;6.03;;;;;;;1.19;74.88;102666.59;5295772;28;20028;-70
2022/03/07 00:05:19;;;;;;;9.85;6.22;;;;;;;1.12;75.70;102667.56;5294718;28;20382;-70
2022/03/07 00:07:51;;;;;;;8.55;6.15;;;;;;;1.09;75.97;102667.59;5295269;28;20507;-70
2022/03/07 00:10:22;;;;;;;7.10;5.60;;;;;;;0.94;75.80;102652.38;5296113;28;20035;-70
2022/03/07 00:12:54;;;;;;;6.88;5.53;;;;;;;1.02;75.95;102658.25;5295449;28;20408;-70
2022/03/07 00:15:25;;;;;;;9.13;6.10;;;;;;;1.05;75.82;102658.22;5294778;28;20023;-70
2022/03/07 00:17:56;;;;;;;11.20;6.90;;;;;;;0.92;76.39;102639.50;5296010;28;20054;-70
2022/03/07 00:20:28;;;;;;;11.65;6.57;;;;;;;1.06;76.39;102659.06;5294779;28;20489;-70
2022/03/07 00:22:59;;;;;;;12.90;6.97;;;;;;;0.98;76.11;102664.34;5295115;28;20092;-70
2022/03/07 00:25:31;;;;;;;10.77;6.70;;;;;;;1.00;76.54;102664.34;5296621;28;20012;-70
2022/03/07 00:28:02;;;;;;;9.85;6.95;;;;;;;0.99;76.34;102657.47;5295827;28;20416;-70
2022/03/07 00:30:34;;;;;;;11.30;6.50;;;;;;;0.97;76.26;102663.50;5294994;28;20020;-70
2022/03/07 00:33:05;;;;;;;11.52;7.10;;;;;;;0.95;76.58;102667.00;5295861;28;20024;-70
2022/03/07 00:35:36;;;;;;;9.40;6.32;;;;;;;0.80;76.38;102670.66;5295872;28;20619;-70
2022/03/07 00:38:08;;;;;;;11.57;7.40;;;;;;;0.79;77.37;102662.91;5295473;28;20050;-70
2022/03/07 00:40:39;;;;;;;11.00;7.03;;;;;;;0.79;77.23;102668.06;5295151;28;20103;-70
2022/03/07 00:43:10;;;;;;;8.13;6.32;;;;;;;0.70;77.08;102667.34;5295466;28;20024;-70
2022/03/07 00:45:42;;;;;;;8.48;6.57;;;;;;;0.66;77.55;102659.69;5276783;28;20027;-70
2022/03/07 00:48:14;;;;;;;8.93;6.88;;;;;;;0.73;77.79;102671.63;5295666;28;20108;-70
2022/03/07 00:50:47;;;;;;;10.87;7.17;;;;;;;0.66;77.73;102670.00;5293338;28;20046;-70
2022/03/07 00:53:22;;;;;;;9.85;6.82;;;;;;;0.64;77.99;102664.84;5295649;28;20028;-70
2022/03/07 00:55:55;;;;;;;10.07;7.32;;;;;;;0.58;77.86;102664.09;5295244;28;20028;-70
2022/03/07 00:58:26;;;;;;;11.50;6.82;;;;;;;0.63;77.54;102663.13;5294913;28;20032;-70
2022/03/07 01:00:57;;;;;;;9.93;7.55;;;;;;;0.57;77.99;102672.69;5295909;28;20515;-70
2022/03/07 01:03:29;;;;;;;10.02;7.40;;;;;;;0.58;77.82;102672.69;5294772;28;20032;-70
2022/03/07 01:06:00;;;;;;;11.05;6.88;;;;;;;0.56;78.76;102678.72;5295385;28;20056;-70
2022/03/07 01:08:31;;;;;;;10.82;7.32;;;;;;;0.52;78.45;102677.06;5295034;28;20071;-70
2022/03/07 01:11:03;;;;;;;11.20;7.40;;;;;;;0.45;78.63;102676.28;5295641;28;20097;-70
2022/03/07 01:13:34;;;;;;;10.50;6.80;;;;;;;0.42;78.21;102678.94;5295075;28;20549;-70
2022/03/07 01:16:06;;;;;;;8.05;6.38;;;;;;;0.40;78.55;102678.94;5294059;28;20020;-70
2022/03/07 01:18:37;;;;;;;8.40;6.72;;;;;;;0.30;79.02;102681.63;5294984;28;20035;-70
2022/03/07 01:21:09;;;;;;;10.13;7.05;;;;;;;0.18;79.40;102665.44;5295122;28;20384;-70
2022/03/07 01:23:40;;;;;;;11.63;7.32;;;;;;;0.18;79.11;102670.59;5295543;28;20046;-70
2022/03/07 01:26:11;;;;;;;9.77;6.47;;;;;;;0.24;79.27;102677.41;5294720;28;20028;-70
2022/03/07 01:28:43;;;;;;;9.00;6.40;;;;;;;0.15;79.16;102668.09;5280284;28;20067;-70
2022/03/07 01:31:14;;;;;;;9.35;6.97;;;;;;;0.06;80.23;102673.34;5280887;28;20024;-69
2022/03/07 01:33:45;;;;;;;9.55;6.72;;;;;;;0.02;79.64;102666.50;5298990;28;20031;-69
2022/03/07 01:36:16;;;;;;;11.07;7.05;;;;;;;-0.01;80.13;102669.97;5299239;28;20460;-68
2022/03/07 01:38:48;;;;;;;8.80;6.50;;;;;;;-0.04;79.55;102671.72;5298011;28;20032;-69
2022/03/07 01:41:20;;;;;;;10.88;6.90;;;;;;;-0.08;81.05;102665.75;5298584;28;20036;-69
2022/03/07 01:43:51;;;;;;;8.73;6.68;;;;;;;-0.13;81.15;102669.25;5298466;28;20032;-69
2022/03/07 01:46:22;;;;;;;9.13;6.80;;;;;;;-0.17;80.73;102665.00;5298766;28;20099;-69
2022/03/07 01:48:53;;;;;;;10.57;6.82;;;;;;;-0.25;80.97;102667.66;5277280;28;20127;-70
2022/03/07 01:51:25;;;;;;;10.70;7.20;;;;;;;-0.23;81.35;102668.50;5276257;28;20143;-70
2022/03/07 01:53:56;;;;;;;8.45;6.53;;;;;;;-0.25;79.46;102665.09;5276079;28;20013;-70
2022/03/07 01:56:28;;;;;;;11.23;6.85;;;;;;;-0.32;80.69;102656.56;5277547;28;20420;-70
2022/03/07 01:58:59;;;;;;;9.02;6.50;;;;;;;-0.31;80.98;102667.72;5277812;28;20032;-70
2022/03/07 02:01:31;;;;;;;9.05;6.90;;;;;;;-0.38;81.20;102664.38;5276973;28;20086;-70
2022/03/07 02:04:03;;;;;;;9.52;7.00;;;;;;;-0.46;81.71;102657.56;5276033;28;20028;-70
2022/03/07 02:06:36;;;;;;;10.48;7.10;;;;;;;-0.46;81.96;102668.72;5276931;28;20016;-70
2022/03/07 02:09:08;;;;;;;10.75;7.43;;;;;;;-0.50;81.95;102661.91;5277880;28;20028;-70
2022/03/07 02:11:41;;;;;;;12.03;6.80;;;;;;;-0.49;82.91;102658.47;5276158;28;20023;-70
2022/03/07 02:14:22;;;;;;;10.52;7.15;;;;;;;-0.44;83.32;102653.28;5272041;28;20056;-70
2022/03/07 02:16:53;;;;;;;9.43;6.75;;;;;;;-0.67;83.79;102656.91;5276869;28;20033;-70
2022/03/07 02:19:24;;;;;;;10.27;7.45;;;;;;;-0.67;83.69;102656.06;5276080;28;20052;-70
2022/03/07 02:22:05;;;;;;;9.85;7.28;;;;;;;-0.58;84.21;102651.66;5277079;28;20070;-70
2022/03/07 02:24:37;;;;;;;11.52;7.60;;;;;;;-0.70;84.99;102656.94;5276052;28;20028;-70
2022/03/07 02:27:10;;;;;;;13.73;7.90;;;;;;;-0.73;85.14;102650.09;5276683;28;20051;-70
2022/03/07 02:29:42;;;;;;;7.90;6.90;;;;;;;-0.71;85.15;102647.53;5277415;28;20090;-70
2022/03/07 02:32:14;;;;;;;10.10;7.53;;;;;;;-0.66;85.07;102644.91;5276395;28;20024;-70
2022/03/07 02:34:45;;;;;;;8.15;6.45;;;;;;;-0.71;84.80;102649.25;5276223;28;20086;-70
2022/03/07 02:37:17;;;;;;;11.15;7.10;;;;;;;-0.75;84.70;102640.69;5275797;28;20107;-70
2022/03/07 02:39:48;;;;;;;10.35;7.47;;;;;;;-0.75;85.46;102636.41;5276435;28;20074;-70
2022/03/07 02:42:20;;;;;;;10.80;7.65;;;;;;;-0.67;85.24;102643.19;5274348;28;20032;-70
2022/03/07 02:44:51;;;;;;;10.77;7.88;;;;;;;-0.64;85.38;102648.31;5276295;28;20501;-70
2022/03/07 02:47:23;;;;;;;10.43;7.65;;;;;;;-0.63;85.71;102650.03;5276228;28;20032;-70
2022/03/07 02:49:54;;;;;;;10.80;8.38;;;;;;;-0.63;85.58;102643.16;5288400;28;20093;-70
2022/03/07 02:52:26;;;;;;;10.45;7.60;;;;;;;-0.64;85.25;102651.75;5297169;28;20341;-70
2022/03/07 02:54:57;;;;;;;12.93;8.02;;;;;;;-0.67;86.26;102632.91;5297681;28;20031;-70
2022/03/07 02:57:28;;;;;;;9.95;7.57;;;;;;;-0.56;85.93;102657.69;5296205;28;20044;-70
2022/03/07 03:00:00;;;;;;;10.50;7.70;;;;;;;-0.56;86.17;102646.53;5297054;28;20457;-70
2022/03/07 03:02:31;;;;;;;12.45;8.32;;;;;;;-0.48;87.28;102641.31;5295535;28;20038;-70
2022/03/07 03:05:02;;;;;;;11.95;8.38;;;;;;;-0.45;87.71;102647.28;5295820;28;20070;-70
2022/03/07 03:07:34;;;;;;;12.00;8.10;;;;;;;-0.42;86.07;102644.66;5296219;28;20031;-70
2022/03/07 03:10:06;;;;;;;10.82;7.85;;;;;;;-0.41;86.49;102640.38;5297311;28;20012;-70
2022/03/07 03:12:38;;;;;;;10.10;7.90;;;;;;;-0.36;86.26;102636.03;5296845;28;20032;-70
2022/03/07 03:15:09;;;;;;;11.60;8.63;;;;;;;-0.39;87.53;102626.59;5296935;28;20024;-70
2022/03/07 03:17:42;;;;;;;10.30;7.63;;;;;;;-0.35;87.19;102630.84;5296409;28;20409;-70
2022/03/07 03:20:14;;;;;;;8.93;7.97;;;;;;;-0.28;86.58;102639.38;5296935;28;20020;-70
2022/03/07 03:22:46;;;;;;;12.50;8.20;;;;;;;-0.34;86.35;102635.16;5296467;28;20035;-70
2022/03/07 03:25:17;;;;;;;9.52;8.40;;;;;;;-0.35;87.55;102637.72;5277841;28;20383;-70
2022/03/07 03:27:49;;;;;;;11.43;8.55;;;;;;;-0.36;86.75;102642.03;5297088;28;20051;-70
2022/03/07 03:30:20;;;;;;;13.00;8.25;;;;;;;-0.36;87.66;102647.19;5297450;28;20020;-70
2022/03/07 03:32:51;;;;;;;11.52;8.30;;;;;;;-0.34;86.11;102634.28;5294067;28;20091;-70
2022/03/07 03:35:23;;;;;;;15.10;8.85;;;;;;;-0.36;86.04;102648.91;5296458;28;20473;-70
2022/03/07 03:37:54;;;;;;;11.05;8.82;;;;;;;-0.35;86.46;102636.00;5296480;28;20499;-70
2022/03/07 03:40:25;;;;;;;10.07;8.00;;;;;;;-0.35;86.34;102645.44;5295722;28;20489;-70
2022/03/07 03:42:57;;;;;;;15.15;9.85;;;;;;;-0.34;86.75;102635.16;5296205;28;20032;-70
2022/03/07 03:45:28;;;;;;;14.02;8.48;;;;;;;-0.40;86.91;102642.06;5296490;28;20036;-70
2022/03/07 03:48:02;;;;;;;14.65;9.00;;;;;;;-0.37;86.37;102650.63;5296208;28;20393;-70
2022/03/07 03:50:33;;;;;;;10.80;8.68;;;;;;;-0.38;86.11;102643.78;5294212;28;20051;-70
2022/03/07 03:53:04;;;;;;;12.50;8.77;;;;;;;-0.47;86.08;102646.44;5295651;28;20389;-70
2022/03/07 03:55:36;;;;;;;12.73;9.00;;;;;;;-0.43;86.90;102653.25;5296217;28;20016;-70
2022/03/07 03:58:07;;;;;;;11.43;9.00;;;;;;;-0.48;86.31;102649.03;5296258;28;20476;-70
2022/03/07 04:00:39;;;;;;;15.27;9.50;;;;;;;-0.56;86.36;102646.53;5294864;28;20032;-70
2022/03/07 04:03:10;;;;;;;13.77;9.05;;;;;;;-0.61;86.48;102649.13;5296180;28;20030;-70
2022/03/07 04:05:41;;;;;;;12.35;8.95;;;;;;;-0.67;85.73;102649.19;5276768;28;20404;-71
2022/03/07 04:08:19;;;;;;;13.65;9.35;;;;;;;-0.53;87.13;102660.22;5295574;28;20489;-70
2022/03/07 04:10:50;;;;;;;14.73;9.73;;;;;;;-0.64;87.77;102656.03;5296147;28;20024;-70
2022/03/07 04:13:22;;;;;;;10.50;8.80;;;;;;;-0.74;87.37;102658.69;5294229;28;20027;-70
2022/03/07 04:15:53;;;;;;;12.35;8.93;;;;;;;-0.70;87.47;102654.38;5295983;28;20016;-70
2022/03/07 04:18:24;;;;;;;13.55;9.23;;;;;;;-0.65;87.26;102654.31;5296071;28;20063;-70
2022/03/07 04:20:55;;;;;;;12.32;9.38;;;;;;;-0.69;88.35;102657.78;5294303;28;20024;-70
2022/03/07 04:23:27;;;;;;;17.10;9.05;;;;;;;-0.68;88.58;102650.06;5295734;28;20473;-70
2022/03/07 04:25:58;;;;;;;11.32;8.68;;;;;;;-0.74;87.95;102648.38;5296221;28;20099;-70
2022/03/07 04:28:29;;;;;;;11.85;9.43;;;;;;;-0.69;88.74;102652.63;5296125;28;20031;-70
2022/03/07 04:31:01;;;;;;;13.55;9.48;;;;;;;-0.65;88.38;102649.16;5295250;28;20063;-70
2022/03/07 04:33:32;;;;;;;12.75;8.82;;;;;;;-0.62;89.39;102651.72;5295713;28;20082;-70
2022/03/07 04:36:03;;;;;;;11.32;8.77;;;;;;;-0.74;88.83;102643.25;5295435;28;20377;-70
2022/03/07 04:38:37;;;;;;;13.40;9.48;;;;;;;-0.60;88.61;102644.84;5295018;28;20392;-70
2022/03/07 04:41:09;;;;;;;11.60;9.48;;;;;;;-0.73;88.94;102642.38;5295759;28;20020;-70
2022/03/07 04:43:40;;;;;;;14.02;8.98;;;;;;;-0.75;88.74;102638.97;5295494;28;20035;-70
2022/03/07 04:46:12;;;;;;;13.82;9.43;;;;;;;-0.74;89.57;102656.13;5296102;28;20380;-70
2022/03/07 04:48:43;;;;;;;12.52;9.30;;;;;;;-0.78;88.52;102648.44;5295182;28;20185;-70
2022/03/07 04:51:14;;;;;;;14.00;9.98;;;;;;;-0.79;88.80;102642.44;5295674;28;20535;-70
2022/03/07 04:53:46;;;;;;;13.43;9.60;;;;;;;-0.73;90.23;102644.09;5294749;28;20581;-70
2022/03/07 04:56:17;;;;;;;12.60;10.00;;;;;;;-0.69;90.68;102650.06;5294469;28;20027;-70
2022/03/07 04:58:48;;;;;;;13.25;9.93;;;;;;;-0.68;89.91;102651.75;5294906;28;20031;-70
2022/03/07 05:01:20;;;;;;;13.15;9.88;;;;;;;-0.69;90.25;102655.22;5294301;28;20035;-70
2022/03/07 05:03:51;;;;;;;13.90;10.15;;;;;;;-0.70;89.92;102661.25;5299438;28;20026;-70
2022/03/07 05:06:22;;;;;;;14.80;10.63;;;;;;;-0.70;90.00;102661.25;5298316;28;20024;-70
2022/03/07 05:08:54;;;;;;;11.88;9.57;;;;;;;-0.66;89.95;102650.03;5298830;28;20384;-70
2022/03/07 05:11:25;;;;;;;15.30;10.23;;;;;;;-0.68;89.51;102647.50;5299553;28;20036;-70
2022/03/07 05:13:57;;;;;;;12.05;10.07;;;;;;;-0.77;88.83;102653.56;5299475;28;20028;-70
2022/03/07 05:16:28;;;;;;;15.15;10.02;;;;;;;-0.70;89.96;102643.22;5279737;28;20043;-70
2022/03/07 05:18:59;;;;;;;12.23;9.02;;;;;;;-0.76;89.97;102638.97;5299275;28;20051;-70
2022/03/07 05:21:30;;;;;;;13.48;9.70;;;;;;;-0.78;89.53;102641.56;5299444;28;20028;-70
2022/03/07 05:24:03;;;;;;;12.32;9.23;;;;;;;-0.78;89.54;102651.00;5298400;28;20048;-70
2022/03/07 05:26:35;;;;;;;13.23;9.77;;;;;;;-0.80;89.39;102645.84;5298718;28;20065;-70
2022/03/07 05:29:07;;;;;;;13.27;10.05;;;;;;;-0.86;88.89;102645.09;5299354;28;20028;-70
2022/03/07 05:31:38;;;;;;;12.27;9.10;;;;;;;-0.86;89.59;102645.94;5299489;28;20027;-70
2022/03/07 05:34:09;;;;;;;13.48;10.25;;;;;;;-0.84;89.53;102639.03;5280858;28;20016;-70
2022/03/07 05:36:41;;;;;;;12.85;9.95;;;;;;;-0.90;89.42;102651.97;5298577;28;20032;-70
2022/03/07 05:39:12;;;;;;;12.18;10.00;;;;;;;-0.87;90.14;102651.94;5298942;28;20032;-70
2022/03/07 05:41:43;;;;;;;13.48;10.63;;;;;;;-0.95;88.63;102645.97;5298615;28;20028;-70
2022/03/07 05:44:15;;;;;;;15.60;9.75;;;;;;;-0.86;89.15;102652.78;5298038;28;20489;-70
2022/03/07 05:46:46;;;;;;;11.10;9.55;;;;;;;-0.93;88.40;102652.00;5299396;28;20118;-70
2022/03/07 05:49:17;;;;;;;16.88;9.55;;;;;;;-0.95;88.51;102664.00;5298777;28;20036;-70
2022/03/07 05:51:49;;;;;;;12.23;9.90;;;;;;;-0.96;89.01;102661.44;5297493;28;20100;-70
2022/03/07 05:54:20;;;;;;;14.95;10.13;;;;;;;-0.97;89.28;102658.03;5298662;28;20024;-70
2022/03/07 05:56:51;;;;;;;24.75;10.52;;;;;;;-0.98;89.42;102653.75;5298873;28;20016;-70
2022/03/07 05:59:23;;;;;;;14.20;10.70;;;;;;;-1.02;89.20;102649.50;5297803;28;20038;-70
2022/03/07 06:01:55;;;;;;;23.88;11.73;;;;;;;-1.07;88.50;102649.50;5298591;28;20015;-70
2022/03/07 06:04:27;;;;;;;13.73;10.18;;;;;;;-1.09;89.02;102660.69;5298327;28;20038;-70
2022/03/07 06:06:58;;;;;;;14.77;11.32;;;;;;;-1.09;89.74;102661.53;5298608;28;20012;-71
2022/03/07 06:09:29;;;;;;;17.17;10.73;;;;;;;-1.09;89.21;102682.13;5297557;28;20036;-70
2022/03/07 06:12:01;;;;;;;15.80;11.52;;;;;;;-1.10;89.87;102670.13;5296578;28;20089;-70
2022/03/07 06:14:32;;;;;;;13.77;10.82;;;;;;;-1.11;90.11;102673.53;5296237;28;20044;-70
2022/03/07 06:17:03;;;;;;;15.48;10.43;;;;;;;-1.05;91.41;102677.81;5297206;28;20049;-70
2022/03/07 06:19:34;;;;;;;12.95;10.45;;;;;;;-1.04;90.82;102687.22;5298473;28;20027;-70
2022/03/07 06:22:06;;;;;;;15.07;10.63;;;;;;;-1.07;90.41;102684.66;5279782;28;20135;-70
2022/03/07 06:24:37;;;;;;;17.23;11.25;;;;;;;-1.09;91.24;102669.25;5297675;28;20024;-70
2022/03/07 06:27:08;;;;;;;14.32;11.45;;;;;;;-1.06;91.25;102678.66;5297217;28;20513;-70
2022/03/07 06:29:39;;;;;;;16.10;12.07;;;;;;;-1.02;91.75;102682.94;5297108;28;20560;-70
2022/03/07 06:32:11;;;;;;;20.60;11.38;;;;;;;-1.05;91.56;102688.94;5298282;28;20050;-70
2022/03/07 06:34:42;;;;;;;17.08;11.00;;;;;;;-0.96;91.95;102698.31;5278788;28;20016;-70
2022/03/07 06:37:13;;;;;;;17.08;11.88;;;;;;;-0.97;91.13;102694.03;5297157;28;20024;-70
2022/03/07 06:39:44;;;;;;;17.58;11.48;;;;;;;-0.97;91.43;102699.19;5297073;28;20028;-70
2022/03/07 06:42:16;;;;;;;18.80;12.75;;;;;;;-0.92;91.87;102701.72;5295634;28;20032;-70
2022/03/07 06:44:47;;;;;;;14.18;11.35;;;;;;;-0.94;91.98;102691.44;5297747;28;20024;-70
2022/03/07 06:47:18;;;;;;;18.73;11.35;;;;;;;-0.90;91.49;102700.00;5297366;28;20020;-70
2022/03/07 06:49:55;;;;;;;17.67;11.88;;;;;;;-0.88;91.46;102700.81;5295760;28;20374;-70
2022/03/07 06:52:27;;;;;;;15.48;11.77;;;;;;;-0.87;91.65;102698.25;5296694;28;20036;-70
2022/03/07 06:54:58;;;;;;;14.15;11.88;;;;;;;-0.81;92.12;102705.06;5297212;28;20042;-70
2022/03/07 06:57:29;;;;;;;15.32;11.45;;;;;;;-0.82;91.90;102700.78;5297303;28;20060;-70
2022/03/07 07:00:02;;;;;;;15.77;12.23;;;;;;;-0.75;92.08;102708.47;5291568;28;20111;-70
2022/03/07 07:02:34;;;;;;;15.60;11.50;;;;;;;-0.74;92.35;102710.16;5293617;28;20599;-70
2022/03/07 07:05:06;;;;;;;16.10;11.98;;;;;;;-0.70;91.22;102705.84;5294597;28;20058;-70
2022/03/07 07:07:38;;;;;;;15.70;12.10;;;;;;;-0.76;91.43;102699.03;5295188;28;20032;-70
2022/03/07 07:10:10;;;;;;;15.05;11.95;;;;;;;-0.72;91.28;102704.97;5293877;28;20496;-70
2022/03/07 07:12:41;;;;;;;20.67;12.27;;;;;;;-0.68;91.61;102705.81;5296231;28;20457;-70
2022/03/07 07:15:13;;;;;;;15.73;11.88;;;;;;;-0.64;91.45;102704.94;5296056;28;20043;-70
2022/03/07 07:17:45;;;;;;;16.88;12.27;;;;;;;-0.59;91.97;102706.59;5295517;28;20043;-70
2022/03/07 07:20:16;;;;;;;13.57;11.27;;;;;;;-0.54;90.98;102709.97;5291000;28;20392;-70
2022/03/07 07:22:47;;;;;;;17.67;11.77;;;;;;;-0.50;91.31;102697.94;5291475;28;20020;-70
2022/03/07 07:25:18;;;;;;;15.18;12.20;;;;;;;-0.45;90.27;102706.50;5295171;28;20026;-70
2022/03/07 07:27:50;;;;;;;17.63;12.07;;;;;;;-0.41;90.83;102700.44;5296276;28;20026;-70
2022/03/07 07:30:22;;;;;;;15.75;11.77;;;;;;;-0.35;90.97;102702.09;5296038;28;20035;-70
2022/03/07 07:32:53;;;;;;;15.43;11.93;;;;;;;-0.33;90.28;102698.66;5295163;28;20086;-70
2022/03/07 07:35:24;;;;;;;17.45;11.68;;;;;;;-0.23;89.53;102693.41;5294336;28;20070;-70
2022/03/07 07:37:56;;;;;;;13.52;11.77;;;;;;;-0.19;90.04;102701.09;5291876;28;20031;-70
2022/03/07 07:40:27;;;;;;;14.23;11.57;;;;;;;-0.16;88.22;102703.63;5295812;28;20028;-70
2022/03/07 07:42:59;;;;;;;14.60;11.75;;;;;;;-0.12;88.07;102702.72;5293860;28;20039;-70
2022/03/07 07:45:30;;;;;;;14.20;11.75;;;;;;;-0.01;88.26;102710.34;5293200;28;20028;-70
2022/03/07 07:48:02;;;;;;;12.95;10.93;;;;;;;0.01;87.33;102697.47;5293694;28;20547;-70
2022/03/07 07:50:33;;;;;;;13.23;11.52;;;;;;;0.10;86.89;102707.66;5290342;22;20048;-69
2022/03/07 07:53:05;;;;;;;15.85;10.82;;;;;;;0.18;86.70;102711.00;5278191;28;20039;-69
2022/03/07 07:55:39;;;;;;;17.38;11.48;;;;;;;0.31;86.49;102714.28;5281419;28;20065;-70
2022/03/07 07:58:10;;;;;;;14.90;10.68;;;;;;;0.33;85.78;102712.53;5267085;28;20637;-69
2022/03/07 08:00:41;;;;;;;14.68;11.77;;;;;;;0.40;84.93;102711.59;5283078;28;20050;-69
2022/03/07 08:03:13;;;;;;;16.27;10.93;;;;;;;0.47;83.83;102718.38;5280900;28;20024;-71
2022/03/07 08:05:48;;;;;;;15.48;11.18;;;;;;;0.54;83.88;102708.84;5278583;28;20021;-71
2022/03/07 08:08:19;;;;;;;14.10;11.00;;;;;;;0.64;83.67;102707.84;5262951;28;20034;-71
2022/03/07 08:10:50;;;;;;;15.32;10.52;;;;;;;0.76;82.56;102715.44;5282984;28;20024;-70
2022/03/07 08:13:22;;;;;;;15.18;11.48;;;;;;;0.80;81.50;102709.34;5279423;28;20024;-71
2022/03/07 08:15:53;;;;;;;12.82;10.38;;;;;;;0.96;80.19;102721.16;5278106;28;20166;-71
2022/03/07 08:18:24;;;;;;;11.93;9.48;;;;;;;1.03;80.79;102721.91;5282436;28;20036;-71
2022/03/07 08:20:59;;;;;;;16.30;9.32;;;;;;;1.17;79.19;102719.97;5276840;28;20165;-71
2022/03/07 08:23:31;;;;;;;12.63;9.60;;;;;;;1.27;77.81;102725.00;5277970;28;20030;-71
2022/03/07 08:26:03;;;;;;;11.23;9.60;;;;;;;1.36;77.48;102719.66;5263048;28;20021;-71
2022/03/07 08:28:34;;;;;;;14.07;8.85;;;;;;;1.44;77.08;102712.69;5280292;28;20470;-71
2022/03/07 08:31:05;;;;;;;13.90;9.23;;;;;;;1.56;75.91;102725.38;5278597;28;20461;-70
2022/03/07 08:33:37;;;;;;;9.50;8.13;;;;;;;1.67;73.11;102720.88;5277003;28;20518;-70
2022/03/07 08:36:08;;;;;;;9.90;8.35;;;;;;;1.81;72.27;102719.78;5276651;28;20104;-71
2022/03/07 08:38:39;;;;;;;10.82;8.32;;;;;;;1.86;71.86;102725.72;5275005;28;20032;-70
2022/03/07 08:41:11;;;;;;;11.95;8.43;;;;;;;1.86;70.65;102712.81;5286529;28;20028;-71
2022/03/07 08:43:42;;;;;;;10.48;8.90;;;;;;;2.01;71.12;102720.28;5281903;28;20493;-70
2022/03/07 08:46:14;;;;;;;11.48;9.00;;;;;;;2.11;71.50;102718.34;5280632;28;20028;-71
2022/03/07 08:48:45;;;;;;;11.30;7.65;;;;;;;2.14;69.97;102724.31;5287192;28;20032;-71
2022/03/07 08:51:16;;;;;;;12.45;7.97;;;;;;;2.21;69.70;102717.28;5283694;28;20035;-71
2022/03/07 08:53:48;;;;;;;11.02;8.05;;;;;;;2.27;70.42;102718.88;5280277;28;20306;-71
2022/03/07 08:56:19;;;;;;;9.30;7.40;;;;;;;2.36;70.73;102713.53;5284506;28;20035;-71
2022/03/07 08:58:50;;;;;;;8.88;7.45;;;;;;;2.49;69.11;102714.97;5283068;28;20033;-71
2022/03/07 09:01:22;;;;;;;9.68;7.78;;;;;;;2.54;67.64;102696.78;5286766;28;20035;-71
2022/03/07 09:03:53;;;;;;;11.45;8.15;;;;;;;2.61;67.57;102708.69;5285168;28;20051;-69
2022/03/07 09:06:24;;;;;;;9.93;7.30;;;;;;;2.72;66.14;102704.13;5284758;28;20074;-69
2022/03/07 09:08:56;;;;;;;9.80;7.25;;;;;;;2.84;65.66;102705.59;5286148;28;20107;-70
2022/03/07 09:11:27;;;;;;;9.30;6.78;;;;;;;3.01;65.03;102697.47;5282248;28;20481;-69
2022/03/07 09:13:58;;;;;;;10.23;7.35;;;;;;;3.05;64.51;102694.75;5285108;28;20035;-69
2022/03/07 09:16:30;;;;;;;7.75;6.63;;;;;;;3.16;62.43;102705.72;5284860;28;20031;-70
2022/03/07 09:19:01;;;;;;;8.55;6.68;;;;;;;3.34;61.85;102704.41;5283409;28;20473;-68
2022/03/07 09:21:33;;;;;;;9.05;6.50;;;;;;;3.43;61.69;102700.75;5285325;28;20028;-68
2022/03/07 09:24:05;;;;;;;8.43;6.35;;;;;;;3.52;60.96;102695.31;5279532;28;20021;-68
2022/03/07 09:26:37;;;;;;;8.82;5.63;;;;;;;3.72;60.75;102694.81;5279840;28;20019;-69
2022/03/07 09:29:10;;;;;;;14.32;6.75;;;;;;;3.82;59.95;102692.81;5285878;28;20028;-70
2022/03/07 09:31:41;;;;;;;7.63;5.88;;;;;;;3.85;58.48;102691.00;5288730;28;20020;-70
2022/03/07 09:34:14;;;;;;;7.50;5.28;;;;;;;3.89;57.18;102699.53;5284250;28;20036;-70
2022/03/07 09:36:45;;;;;;;7.72;5.05;;;;;;;3.90;55.76;102677.91;5283048;28;20044;-70
2022/03/07 09:39:16;;;;;;;6.45;4.30;;;;;;;3.95;55.58;102686.41;5286079;28;20563;-71
2022/03/07 09:41:48;;;;;;;6.18;4.97;;;;;;;3.98;56.44;102688.94;5283662;28;20033;-70
2022/03/07 09:44:19;;;;;;;6.95;4.40;;;;;;;4.01;55.34;102677.59;5288591;28;20028;-70
2022/03/07 09:46:50;;;;;;;7.72;4.47;;;;;;;4.14;55.57;102685.00;5285724;28;20488;-70
2022/03/07 09:49:22;;;;;;;6.07;4.90;;;;;;;4.11;55.88;102682.50;5282012;28;20465;-69
2022/03/07 09:51:53;;;;;;;6.57;4.60;;;;;;;4.17;54.59;102681.50;5282314;28;20397;-70
2022/03/07 09:54:25;;;;;;;6.43;4.55;;;;;;;4.30;56.28;102677.63;5283047;28;20032;-71
2022/03/07 09:56:56;;;;;;;7.05;4.20;;;;;;;4.33;54.75;102676.69;5279461;28;20485;-71
2022/03/07 09:59:30;;;;;;;4.85;3.80;;;;;;;4.43;54.19;102670.31;5276617;28;20488;-71
2022/03/07 10:02:05;;;;;;;5.18;4.03;;;;;;;4.62;53.77;102674.09;5277223;28;20028;-70
2022/03/07 10:04:42;;;;;;;7.75;4.78;;;;;;;4.64;52.83;102664.50;5280761;28;20103;-70
2022/03/07 10:07:14;;;;;;;5.00;3.88;;;;;;;4.74;53.39;102666.81;5286386;28;20031;-71
2022/03/07 10:09:46;;;;;;;6.60;4.25;;;;;;;4.74;52.79;102669.41;5283200;28;20032;-71
2022/03/07 10:12:27;;;;;;;6.15;4.22;;;;;;;4.97;53.71;102653.13;5286340;28;20265;-70
2022/03/07 10:15:10;;;;;;;5.60;3.60;;;;;;;5.09;53.24;102658.75;5285423;28;21039;-70
2022/03/07 10:17:48;;;;;;;5.40;3.70;;;;;;;5.19;51.88;102648.91;5281941;28;20028;-70
2022/03/07 10:20:21;;;;;;;6.03;3.70;;;;;;;5.35;52.78;102649.25;5265864;28;20031;-70
2022/03/07 10:22:58;;;;;;;10.80;3.67;;;;;;;5.31;52.20;102655.44;5267824;28;20155;-70
2022/03/07 10:25:32;;;;;;;4.43;3.42;;;;;;;5.41;51.44;102648.16;5284290;28;20032;-70
2022/03/07 10:28:05;;;;;;;4.72;3.40;;;;;;;5.32;49.38;102651.94;5281642;28;20028;-70
2022/03/07 10:30:38;;;;;;;7.22;3.08;;;;;;;5.34;49.50;102648.41;5284504;28;20023;-70
2022/03/07 10:33:12;;;;;;;6.15;3.65;;;;;;;5.34;50.69;102645.81;5283877;28;20085;-70
2022/03/07 10:35:49;;;;;;;5.90;3.83;;;;;;;5.48;50.11;102640.09;5284445;28;20036;-70
2022/03/07 10:38:21;;;;;;;3.92;3.10;;;;;;;5.53;49.59;102651.22;5284197;28;20081;-70
2022/03/07 10:40:54;;;;;;;4.65;3.50;;;;;;;5.58;49.41;102646.69;5284914;28;20042;-69
2022/03/07 10:43:27;;;;;;;10.68;4.75;;;;;;;5.59;48.77;102637.97;5284976;28;20048;-69
2022/03/07 10:46:01;;;;;;;6.22;3.75;;;;;;;5.64;49.26;102642.16;5283137;28;20039;-70
2022/03/07 10:48:40;;;;;;;;;;;;;;;6.02;48.53;102635.63;5285444;28;20442;-71
2022/03/07 10:51:17;;;;;;;5.50;3.67;;;;;;;5.96;48.99;102631.50;5286055;28;19920;-71
2022/03/07 10:53:48;;;;;;;5.65;3.67;;;;;;;5.92;48.94;102622.13;5282272;28;20267;-71
2022/03/07 10:56:23;;;;;;;7.03;3.70;;;;;;;5.98;48.40;102608.84;5287267;28;20361;-71
2022/03/07 10:58:55;;;;;;;4.97;2.97;;;;;;;6.02;48.49;102601.78;5285673;28;20047;-72
2022/03/07 11:01:31;;;;;;;6.45;4.13;;;;;;;6.08;48.52;102604.19;5281220;28;20175;-73
2022/03/07 11:04:02;;;;;;;5.43;3.50;;;;;;;6.15;48.83;102591.78;5261681;28;20032;-72
2022/03/07 11:06:33;;;;;;;5.28;3.40;;;;;;;6.31;48.14;102600.69;5284902;28;20485;-73
2022/03/07 11:09:04;;;;;;;7.63;3.75;;;;;;;6.37;47.18;102594.41;5284515;28;20032;-72
2022/03/07 11:11:36;;;;;;;4.82;3.60;;;;;;;6.34;47.39;102587.56;5282194;28;20028;-73
2022/03/07 11:14:08;;;;;;;5.70;4.00;;;;;;;6.18;47.29;102578.66;5283243;28;20035;-72
2022/03/07 11:16:41;;;;;;;4.72;3.75;;;;;;;6.41;46.70;102583.81;5282017;28;20465;-73
2022/03/07 11:19:16;;;;;;;6.88;4.07;;;;;;;6.49;46.66;102578.31;5283064;28;20377;-72
2022/03/07 11:21:50;;;;;;;5.82;3.72;;;;;;;6.64;46.81;102579.44;5283424;28;20031;-72
2022/03/07 11:24:25;;;;;;;5.47;3.40;;;;;;;6.79;46.07;102571.84;5284190;28;20028;-72
2022/03/07 11:26:56;;;;;;;7.25;4.07;;;;;;;6.91;46.49;102564.44;5282056;28;20012;-73
2022/03/07 11:29:34;;;;;;;5.82;3.60;;;;;;;7.05;46.55;102572.53;5273969;28;20624;-72
2022/03/07 11:32:09;;;;;;;5.72;3.67;;;;;;;6.96;46.38;102572.91;5282454;28;20508;-73
2022/03/07 11:34:53;;;;;;;6.93;4.18;;;;;;;6.99;45.49;102564.97;5277667;28;20023;-73
2022/03/07 11:37:30;;;;;;;5.25;3.83;;;;;;;6.96;45.45;102552.06;5264351;28;20036;-73
2022/03/07 11:40:14;;;;;;;5.75;3.67;;;;;;;6.99;45.79;102552.78;5286107;28;20016;-72
2022/03/07 11:42:45;;;;;;;6.22;4.22;;;;;;;7.03;45.76;102543.91;5265140;28;20039;-73